sensor_id;sensor_type;location;lat;lon;timestamp;pressure;altitude;pressure_sealevel;temperature;humidity
44453;BME280;30155;52.164;21.236;2023-04-04T00:04:30;101402.34;;;1.01;56.47
44453;BME280;30155;52.164;21.236;2023-04-04T00:09:23;101401.08;;;0.92;56.67
44453;BME280;30155;52.164;21.236;2023-04-04T00:14:16;101397.49;;;0.88;56.77
44453;BME280;30155;52.164;21.236;2023-04-04T00:19:09;101399.05;;;0.83;56.78
44453;BME280;30155;52.164;21.236;2023-04-04T00:24:04;101392.60;;;0.72;56.95
44453;BME280;30155;52.164;21.236;2023-04-04T00:28:57;101396.44;;;0.64;57.23
44453;BME280;30155;52.164;21.236;2023-04-04T00:33:51;101393.73;;;0.57;57.44
44453;BME280;30155;52.164;21.236;2023-04-04T00:38:43;101387.77;;;0.49;57.62
44453;BME280;30155;52.164;21.236;2023-04-04T00:43:37;101383.71;;;0.40;57.87
44453;BME280;30155;52.164;21.236;2023-04-04T00:48:30;101380.23;;;0.29;58.07
44453;BME280;30155;52.164;21.236;2023-04-04T00:53:23;101373.18;;;0.21;58.37
44453;BME280;30155;52.164;21.236;2023-04-04T00:58:16;101366.73;;;0.13;58.59
44453;BME280;30155;52.164;21.236;2023-04-04T01:03:10;101359.81;;;0.05;58.58
44453;BME280;30155;52.164;21.236;2023-04-04T01:08:04;101350.28;;;-0.05;58.95
44453;BME280;30155;52.164;21.236;2023-04-04T01:12:57;101349.85;;;-0.16;59.13
44453;BME280;30155;52.164;21.236;2023-04-04T01:17:54;101344.43;;;-0.30;59.62
44453;BME280;30155;52.164;21.236;2023-04-04T01:22:49;101345.61;;;-0.40;59.73
44453;BME280;30155;52.164;21.236;2023-04-04T01:27:43;101344.09;;;-0.50;59.85
44453;BME280;30155;52.164;21.236;2023-04-04T01:32:48;101340.59;;;-0.61;60.10
44453;BME280;30155;52.164;21.236;2023-04-04T01:37:51;101340.80;;;-0.67;60.53
44453;BME280;30155;52.164;21.236;2023-04-04T01:42:48;101340.34;;;-0.76;60.76
44453;BME280;30155;52.164;21.236;2023-04-04T01:47:43;101343.44;;;-0.83;60.77
44453;BME280;30155;52.164;21.236;2023-04-04T01:52:40;101348.17;;;-0.90;60.99
44453;BME280;30155;52.164;21.236;2023-04-04T01:57:33;101349.77;;;-0.98;61.30
44453;BME280;30155;52.164;21.236;2023-04-04T02:02:27;101351.43;;;-1.06;61.35
44453;BME280;30155;52.164;21.236;2023-04-04T02:07:20;101349.58;;;-1.13;61.70
44453;BME280;30155;52.164;21.236;2023-04-04T02:12:14;101354.35;;;-1.17;61.78
44453;BME280;30155;52.164;21.236;2023-04-04T02:17:07;101352.81;;;-1.20;62.05
44453;BME280;30155;52.164;21.236;2023-04-04T02:22:00;101356.70;;;-1.26;62.23
44453;BME280;30155;52.164;21.236;2023-04-04T02:26:53;101356.36;;;-1.31;62.40
44453;BME280;30155;52.164;21.236;2023-04-04T02:31:46;101351.70;;;-1.34;62.53
44453;BME280;30155;52.164;21.236;2023-04-04T02:36:39;101351.39;;;-1.41;62.74
44453;BME280;30155;52.164;21.236;2023-04-04T02:41:32;101356.39;;;-1.47;62.84
44453;BME280;30155;52.164;21.236;2023-04-04T02:46:26;101356.61;;;-1.50;63.01
44453;BME280;30155;52.164;21.236;2023-04-04T02:51:22;101361.95;;;-1.54;63.34
44453;BME280;30155;52.164;21.236;2023-04-04T02:56:16;101354.17;;;-1.58;63.32
44453;BME280;30155;52.164;21.236;2023-04-04T03:01:09;101354.11;;;-1.64;63.58
44453;BME280;30155;52.164;21.236;2023-04-04T03:06:03;101355.27;;;-1.68;63.65
44453;BME280;30155;52.164;21.236;2023-04-04T03:10:55;101360.33;;;-1.73;63.82
44453;BME280;30155;52.164;21.236;2023-04-04T03:15:48;101359.17;;;-1.75;63.99
44453;BME280;30155;52.164;21.236;2023-04-04T03:20:41;101358.13;;;-1.80;64.20
44453;BME280;30155;52.164;21.236;2023-04-04T03:25:34;101360.69;;;-1.84;64.36
44453;BME280;30155;52.164;21.236;2023-04-04T03:30:29;101357.32;;;-1.86;64.46
44453;BME280;30155;52.164;21.236;2023-04-04T03:35:22;101358.71;;;-1.88;64.59
44453;BME280;30155;52.164;21.236;2023-04-04T03:40:15;101354.87;;;-1.94;64.61
44453;BME280;30155;52.164;21.236;2023-04-04T03:45:09;101355.46;;;-1.99;64.86
44453;BME280;30155;52.164;21.236;2023-04-04T03:50:02;101357.05;;;-2.03;65.01
44453;BME280;30155;52.164;21.236;2023-04-04T03:54:55;101361.74;;;-2.06;65.09
44453;BME280;30155;52.164;21.236;2023-04-04T03:59:49;101352.24;;;-2.12;65.10
44453;BME280;30155;52.164;21.236;2023-04-04T04:04:44;101348.64;;;-2.17;65.16
44453;BME280;30155;52.164;21.236;2023-04-04T04:09:37;101345.77;;;-2.23;65.29
44453;BME280;30155;52.164;21.236;2023-04-04T04:14:30;101348.77;;;-2.26;65.42
44453;BME280;30155;52.164;21.236;2023-04-04T04:19:24;101347.29;;;-2.30;65.61
44453;BME280;30155;52.164;21.236;2023-04-04T04:24:17;101349.13;;;-2.31;65.69
44453;BME280;30155;52.164;21.236;2023-04-04T04:29:10;101355.15;;;-2.32;65.63
44453;BME280;30155;52.164;21.236;2023-04-04T04:34:06;101348.27;;;-2.31;66.01
44453;BME280;30155;52.164;21.236;2023-04-04T04:39:01;101345.42;;;-2.28;66.00
44453;BME280;30155;52.164;21.236;2023-04-04T04:43:56;101342.73;;;-2.21;66.18
44453;BME280;30155;52.164;21.236;2023-04-04T04:48:50;101340.38;;;-2.14;66.26
44453;BME280;30155;52.164;21.236;2023-04-04T04:53:47;101341.73;;;-2.01;66.33
44453;BME280;30155;52.164;21.236;2023-04-04T04:58:41;101340.09;;;-1.91;66.36
44453;BME280;30155;52.164;21.236;2023-04-04T05:03:38;101342.35;;;-1.81;66.39
44453;BME280;30155;52.164;21.236;2023-04-04T05:08:33;101337.52;;;-1.76;66.34
44453;BME280;30155;52.164;21.236;2023-04-04T05:13:41;101335.20;;;-1.71;66.42
44453;BME280;30155;52.164;21.236;2023-04-04T05:18:35;101331.55;;;-1.65;66.43
44453;BME280;30155;52.164;21.236;2023-04-04T05:23:32;101334.63;;;-1.56;66.53
44453;BME280;30155;52.164;21.236;2023-04-04T05:28:25;101334.02;;;-1.48;66.51
44453;BME280;30155;52.164;21.236;2023-04-04T05:33:21;101340.63;;;-1.41;66.47
44453;BME280;30155;52.164;21.236;2023-04-04T05:38:22;101342.90;;;-1.32;66.48
44453;BME280;30155;52.164;21.236;2023-04-04T05:43:16;101340.23;;;-1.24;66.30
44453;BME280;30155;52.164;21.236;2023-04-04T05:48:20;101343.44;;;-1.18;66.24
44453;BME280;30155;52.164;21.236;2023-04-04T05:53:15;101341.83;;;-1.07;66.20
44453;BME280;30155;52.164;21.236;2023-04-04T05:58:09;101334.00;;;-0.97;65.99
44453;BME280;30155;52.164;21.236;2023-04-04T06:03:11;101339.11;;;-0.86;65.86
44453;BME280;30155;52.164;21.236;2023-04-04T06:08:05;101339.10;;;-0.67;65.67
44453;BME280;30155;52.164;21.236;2023-04-04T06:12:58;101338.22;;;-0.60;65.54
44453;BME280;30155;52.164;21.236;2023-04-04T06:17:52;101334.52;;;-0.50;65.58
44453;BME280;30155;52.164;21.236;2023-04-04T06:22:46;101330.30;;;-0.40;65.25
44453;BME280;30155;52.164;21.236;2023-04-04T06:27:40;101327.48;;;-0.29;65.13
44453;BME280;30155;52.164;21.236;2023-04-04T06:32:33;101329.80;;;-0.08;64.51
44453;BME280;30155;52.164;21.236;2023-04-04T06:37:27;101328.54;;;0.06;64.38
44453;BME280;30155;52.164;21.236;2023-04-04T06:42:30;101326.39;;;0.12;64.20
44453;BME280;30155;52.164;21.236;2023-04-04T06:47:27;101321.07;;;0.19;64.28
44453;BME280;30155;52.164;21.236;2023-04-04T06:52:20;101315.05;;;0.28;64.26
44453;BME280;30155;52.164;21.236;2023-04-04T06:57:13;101312.04;;;0.50;64.06
44453;BME280;30155;52.164;21.236;2023-04-04T07:02:07;101314.80;;;0.65;63.35
44453;BME280;30155;52.164;21.236;2023-04-04T07:07:00;101313.27;;;0.81;62.90
44453;BME280;30155;52.164;21.236;2023-04-04T07:11:53;101305.96;;;1.21;62.51
44453;BME280;30155;52.164;21.236;2023-04-04T07:16:45;101303.45;;;1.68;61.44
44453;BME280;30155;52.164;21.236;2023-04-04T07:21:38;101305.36;;;1.91;60.97
44453;BME280;30155;52.164;21.236;2023-04-04T07:26:31;101297.98;;;3.87;58.92
44453;BME280;30155;52.164;21.236;2023-04-04T07:31:25;101272.52;;;9.05;53.01
44453;BME280;30155;52.164;21.236;2023-04-04T07:36:18;101264.80;;;11.81;49.51
44453;BME280;30155;52.164;21.236;2023-04-04T07:41:11;101258.92;;;11.82;48.90
44453;BME280;30155;52.164;21.236;2023-04-04T07:46:04;101245.40;;;15.98;44.58
44453;BME280;30155;52.164;21.236;2023-04-04T07:50:57;101251.19;;;15.54;43.95
44453;BME280;30155;52.164;21.236;2023-04-04T07:55:51;101246.83;;;15.91;42.62
44453;BME280;30155;52.164;21.236;2023-04-04T08:00:44;101236.13;;;16.56;41.03
44453;BME280;30155;52.164;21.236;2023-04-04T08:05:37;101232.99;;;16.01;40.21
44453;BME280;30155;52.164;21.236;2023-04-04T08:10:30;101233.70;;;14.74;39.84
44453;BME280;30155;52.164;21.236;2023-04-04T08:15:23;101231.34;;;14.10;39.88
44453;BME280;30155;52.164;21.236;2023-04-04T08:20:16;101223.29;;;17.10;37.68
44453;BME280;30155;52.164;21.236;2023-04-04T08:25:09;101228.56;;;14.75;38.52
44453;BME280;30155;52.164;21.236;2023-04-04T08:30:03;101229.98;;;12.17;40.19
44453;BME280;30155;52.164;21.236;2023-04-04T08:34:57;101239.72;;;9.99;41.39
44453;BME280;30155;52.164;21.236;2023-04-04T08:39:50;101245.09;;;8.42;42.24
44453;BME280;30155;52.164;21.236;2023-04-04T08:44:44;101248.27;;;7.52;43.33
44453;BME280;30155;52.164;21.236;2023-04-04T08:49:43;101245.93;;;7.09;43.99
44453;BME280;30155;52.164;21.236;2023-04-04T08:54:39;101244.16;;;6.74;44.20
44453;BME280;30155;52.164;21.236;2023-04-04T08:59:32;101238.89;;;6.43;44.53
44453;BME280;30155;52.164;21.236;2023-04-04T09:04:28;101242.85;;;6.10;45.24
44453;BME280;30155;52.164;21.236;2023-04-04T09:09:21;101242.05;;;5.92;45.14
44453;BME280;30155;52.164;21.236;2023-04-04T09:14:17;101233.21;;;7.25;45.07
44453;BME280;30155;52.164;21.236;2023-04-04T09:19:11;101218.90;;;8.70;42.33
44453;BME280;30155;52.164;21.236;2023-04-04T09:24:04;101221.09;;;8.02;42.77
44453;BME280;30155;52.164;21.236;2023-04-04T09:28:56;101223.59;;;7.43;43.03
44453;BME280;30155;52.164;21.236;2023-04-04T09:33:49;101220.64;;;6.76;42.86
44453;BME280;30155;52.164;21.236;2023-04-04T09:38:42;101227.55;;;6.07;43.99
44453;BME280;30155;52.164;21.236;2023-04-04T09:43:38;101237.63;;;5.36;44.30
44453;BME280;30155;52.164;21.236;2023-04-04T09:48:32;101235.48;;;4.91;45.23
44453;BME280;30155;52.164;21.236;2023-04-04T09:53:27;101237.75;;;4.77;45.37
44453;BME280;30155;52.164;21.236;2023-04-04T09:58:27;101237.86;;;4.94;45.60
44453;BME280;30155;52.164;21.236;2023-04-04T10:03:27;101232.92;;;5.65;44.98
44453;BME280;30155;52.164;21.236;2023-04-04T10:08:21;101229.70;;;6.05;44.15
44453;BME280;30155;52.164;21.236;2023-04-04T10:13:22;101230.50;;;5.81;44.08
44453;BME280;30155;52.164;21.236;2023-04-04T10:18:17;101236.07;;;5.78;44.17
44453;BME280;30155;52.164;21.236;2023-04-04T10:23:13;101230.69;;;5.84;44.26
44453;BME280;30155;52.164;21.236;2023-04-04T10:28:07;101227.95;;;5.88;44.08
44453;BME280;30155;52.164;21.236;2023-04-04T10:33:06;101226.96;;;5.82;43.58
44453;BME280;30155;52.164;21.236;2023-04-04T10:38:03;101227.23;;;5.50;44.08
44453;BME280;30155;52.164;21.236;2023-04-04T10:43:01;101230.33;;;5.12;44.10
44453;BME280;30155;52.164;21.236;2023-04-04T10:47:55;101223.26;;;4.97;44.72
44453;BME280;30155;52.164;21.236;2023-04-04T10:52:49;101224.04;;;5.17;45.58
44453;BME280;30155;52.164;21.236;2023-04-04T10:57:44;101227.38;;;5.60;45.02
44453;BME280;30155;52.164;21.236;2023-04-04T11:02:54;101220.03;;;6.24;44.95
44453;BME280;30155;52.164;21.236;2023-04-04T11:07:59;101209.49;;;6.52;44.07
44453;BME280;30155;52.164;21.236;2023-04-04T11:12:57;101208.88;;;6.54;44.12
44453;BME280;30155;52.164;21.236;2023-04-04T11:18:04;101208.15;;;6.44;43.92
44453;BME280;30155;52.164;21.236;2023-04-04T11:23:18;101202.52;;;6.99;43.68
44453;BME280;30155;52.164;21.236;2023-04-04T11:28:23;101192.30;;;7.64;42.80
44453;BME280;30155;52.164;21.236;2023-04-04T11:33:26;101198.78;;;6.94;42.94
44453;BME280;30155;52.164;21.236;2023-04-04T11:38:21;101206.77;;;6.04;43.37
44453;BME280;30155;52.164;21.236;2023-04-04T11:43:14;101210.84;;;5.44;44.34
44453;BME280;30155;52.164;21.236;2023-04-04T11:48:07;101211.05;;;5.30;44.86
44453;BME280;30155;52.164;21.236;2023-04-04T11:53:04;101205.79;;;5.39;45.34
44453;BME280;30155;52.164;21.236;2023-04-04T11:58:09;101202.42;;;5.72;45.26
44453;BME280;30155;52.164;21.236;2023-04-04T12:03:05;101189.48;;;6.26;44.90
44453;BME280;30155;52.164;21.236;2023-04-04T12:07:59;101187.19;;;6.29;44.74
44453;BME280;30155;52.164;21.236;2023-04-04T12:12:54;101188.10;;;6.02;44.90
44453;BME280;30155;52.164;21.236;2023-04-04T12:17:48;101196.58;;;5.64;45.42
44453;BME280;30155;52.164;21.236;2023-04-04T12:22:42;101195.29;;;5.43;45.87
44453;BME280;30155;52.164;21.236;2023-04-04T12:27:38;101191.78;;;5.30;46.24
44453;BME280;30155;52.164;21.236;2023-04-04T12:32:31;101194.86;;;5.15;46.53
44453;BME280;30155;52.164;21.236;2023-04-04T12:37:27;101197.09;;;5.15;46.88
44453;BME280;30155;52.164;21.236;2023-04-04T12:42:21;101190.46;;;5.58;47.38
44453;BME280;30155;52.164;21.236;2023-04-04T12:47:16;101189.84;;;5.94;47.18
44453;BME280;30155;52.164;21.236;2023-04-04T12:52:19;101188.55;;;6.00;47.17
44453;BME280;30155;52.164;21.236;2023-04-04T12:57:17;101186.02;;;5.90;46.92
44453;BME280;30155;52.164;21.236;2023-04-04T13:02:12;101187.34;;;5.61;47.39
44453;BME280;30155;52.164;21.236;2023-04-04T13:07:23;101185.98;;;5.24;48.04
44453;BME280;30155;52.164;21.236;2023-04-04T13:12:17;101183.02;;;4.75;48.37
44453;BME280;30155;52.164;21.236;2023-04-04T13:17:10;101189.11;;;4.41;48.78
44453;BME280;30155;52.164;21.236;2023-04-04T13:22:07;101195.36;;;4.08;48.84
44453;BME280;30155;52.164;21.236;2023-04-04T13:27:00;101201.07;;;3.89;49.38
44453;BME280;30155;52.164;21.236;2023-04-04T13:31:53;101196.16;;;3.80;49.78
44453;BME280;30155;52.164;21.236;2023-04-04T13:36:46;101190.79;;;3.82;50.05
44453;BME280;30155;52.164;21.236;2023-04-04T13:41:39;101194.38;;;3.78;50.02
44453;BME280;30155;52.164;21.236;2023-04-04T13:46:32;101188.56;;;3.86;50.43
44453;BME280;30155;52.164;21.236;2023-04-04T13:51:26;101182.14;;;4.25;50.41
44453;BME280;30155;52.164;21.236;2023-04-04T13:56:19;101180.30;;;5.08;49.68
44453;BME280;30155;52.164;21.236;2023-04-04T14:01:12;101169.02;;;5.90;49.31
44453;BME280;30155;52.164;21.236;2023-04-04T14:06:05;101166.59;;;5.86;48.48
44453;BME280;30155;52.164;21.236;2023-04-04T14:11:01;101171.70;;;5.54;48.63
44453;BME280;30155;52.164;21.236;2023-04-04T14:15:54;101175.34;;;5.16;48.41
44453;BME280;30155;52.164;21.236;2023-04-04T14:20:47;101178.45;;;4.87;48.57
44453;BME280;30155;52.164;21.236;2023-04-04T14:25:40;101177.09;;;4.69;48.53
44453;BME280;30155;52.164;21.236;2023-04-04T14:30:33;101171.70;;;4.54;48.78
44453;BME280;30155;52.164;21.236;2023-04-04T14:35:26;101165.31;;;4.35;48.79
44453;BME280;30155;52.164;21.236;2023-04-04T14:40:19;101169.62;;;4.22;48.94
44453;BME280;30155;52.164;21.236;2023-04-04T14:45:13;101168.48;;;4.19;49.36
44453;BME280;30155;52.164;21.236;2023-04-04T14:50:07;101157.50;;;4.19;49.37
44453;BME280;30155;52.164;21.236;2023-04-04T14:54:59;101156.37;;;4.07;49.17
44453;BME280;30155;52.164;21.236;2023-04-04T14:59:52;101153.24;;;3.82;49.26
44453;BME280;30155;52.164;21.236;2023-04-04T15:04:45;101151.91;;;3.63;49.57
44453;BME280;30155;52.164;21.236;2023-04-04T15:09:38;101149.25;;;3.61;49.63
44453;BME280;30155;52.164;21.236;2023-04-04T15:14:31;101151.50;;;3.59;49.58
44453;BME280;30155;52.164;21.236;2023-04-04T15:19:24;101153.52;;;3.48;49.59
44453;BME280;30155;52.164;21.236;2023-04-04T15:24:16;101150.52;;;3.40;49.73
44453;BME280;30155;52.164;21.236;2023-04-04T15:29:09;101148.91;;;3.35;50.15
44453;BME280;30155;52.164;21.236;2023-04-04T15:34:02;101149.98;;;3.33;50.12
44453;BME280;30155;52.164;21.236;2023-04-04T15:38:55;101142.20;;;3.41;50.30
44453;BME280;30155;52.164;21.236;2023-04-04T15:43:48;101143.56;;;3.54;49.80
44453;BME280;30155;52.164;21.236;2023-04-04T15:48:41;101147.69;;;3.64;50.00
44453;BME280;30155;52.164;21.236;2023-04-04T15:53:34;101148.49;;;3.63;49.97
44453;BME280;30155;52.164;21.236;2023-04-04T15:58:26;101150.50;;;3.59;49.76
44453;BME280;30155;52.164;21.236;2023-04-04T16:03:20;101148.73;;;3.52;49.88
44453;BME280;30155;52.164;21.236;2023-04-04T16:08:14;101148.17;;;3.44;49.93
44453;BME280;30155;52.164;21.236;2023-04-04T16:13:07;101142.16;;;3.37;49.99
44453;BME280;30155;52.164;21.236;2023-04-04T16:18:00;101139.63;;;3.31;50.16
44453;BME280;30155;52.164;21.236;2023-04-04T16:22:54;101133.88;;;3.27;50.33
44453;BME280;30155;52.164;21.236;2023-04-04T16:27:47;101131.64;;;3.23;50.48
44453;BME280;30155;52.164;21.236;2023-04-04T16:32:40;101135.26;;;3.17;50.72
44453;BME280;30155;52.164;21.236;2023-04-04T16:37:33;101135.93;;;3.11;50.16
44453;BME280;30155;52.164;21.236;2023-04-04T16:42:26;101139.23;;;3.02;50.48
44453;BME280;30155;52.164;21.236;2023-04-04T16:47:19;101147.45;;;2.95;50.40
44453;BME280;30155;52.164;21.236;2023-04-04T16:52:12;101146.15;;;2.87;50.59
44453;BME280;30155;52.164;21.236;2023-04-04T16:57:05;101150.02;;;2.83;50.66
44453;BME280;30155;52.164;21.236;2023-04-04T17:01:58;101155.70;;;2.77;50.62
44453;BME280;30155;52.164;21.236;2023-04-04T17:06:51;101155.86;;;2.71;50.86
44453;BME280;30155;52.164;21.236;2023-04-04T17:11:44;101160.63;;;2.64;50.98
44453;BME280;30155;52.164;21.236;2023-04-04T17:16:37;101162.17;;;2.61;50.76
44453;BME280;30155;52.164;21.236;2023-04-04T17:21:30;101166.17;;;2.59;51.10
44453;BME280;30155;52.164;21.236;2023-04-04T17:26:27;101166.39;;;2.57;51.31
44453;BME280;30155;52.164;21.236;2023-04-04T17:31:21;101167.16;;;2.55;51.05
44453;BME280;30155;52.164;21.236;2023-04-04T17:36:14;101162.69;;;2.52;51.48
44453;BME280;30155;52.164;21.236;2023-04-04T17:41:07;101169.14;;;2.48;51.67
44453;BME280;30155;52.164;21.236;2023-04-04T17:46:00;101169.05;;;2.44;51.71
44453;BME280;30155;52.164;21.236;2023-04-04T17:50:53;101176.67;;;2.39;52.14
44453;BME280;30155;52.164;21.236;2023-04-04T17:55:46;101176.77;;;2.35;52.53
44453;BME280;30155;52.164;21.236;2023-04-04T18:00:38;101185.17;;;2.32;52.63
44453;BME280;30155;52.164;21.236;2023-04-04T18:05:32;101184.04;;;2.27;52.39
44453;BME280;30155;52.164;21.236;2023-04-04T18:10:25;101184.34;;;2.24;52.41
44453;BME280;30155;52.164;21.236;2023-04-04T18:15:18;101189.32;;;2.24;52.70
44453;BME280;30155;52.164;21.236;2023-04-04T18:20:11;101192.52;;;2.26;53.08
44453;BME280;30155;52.164;21.236;2023-04-04T18:25:22;101195.29;;;2.26;52.38
44453;BME280;30155;52.164;21.236;2023-04-04T18:30:16;101199.70;;;2.26;52.66
44453;BME280;30155;52.164;21.236;2023-04-04T18:35:09;101208.09;;;2.26;52.60
44453;BME280;30155;52.164;21.236;2023-04-04T18:40:03;101209.54;;;2.24;53.02
44453;BME280;30155;52.164;21.236;2023-04-04T18:44:56;101211.86;;;2.23;53.59
44453;BME280;30155;52.164;21.236;2023-04-04T18:49:49;101213.10;;;2.21;54.21
44453;BME280;30155;52.164;21.236;2023-04-04T18:54:42;101215.73;;;2.19;54.81
44453;BME280;30155;52.164;21.236;2023-04-04T18:59:36;101216.29;;;2.17;55.15
44453;BME280;30155;52.164;21.236;2023-04-04T19:04:29;101213.48;;;2.16;55.86
44453;BME280;30155;52.164;21.236;2023-04-04T19:09:24;101213.59;;;2.15;55.70
44453;BME280;30155;52.164;21.236;2023-04-04T19:14:18;101213.01;;;2.11;56.01
44453;BME280;30155;52.164;21.236;2023-04-04T19:19:11;101216.95;;;2.02;55.87
44453;BME280;30155;52.164;21.236;2023-04-04T19:24:04;101212.04;;;1.97;56.04
44453;BME280;30155;52.164;21.236;2023-04-04T19:28:58;101213.21;;;1.91;57.04
44453;BME280;30155;52.164;21.236;2023-04-04T19:33:51;101208.48;;;1.86;57.13
44453;BME280;30155;52.164;21.236;2023-04-04T19:38:46;101208.48;;;1.83;57.56
44453;BME280;30155;52.164;21.236;2023-04-04T19:43:41;101212.27;;;1.81;58.01
44453;BME280;30155;52.164;21.236;2023-04-04T19:48:38;101209.61;;;1.76;58.08
44453;BME280;30155;52.164;21.236;2023-04-04T19:53:32;101210.96;;;1.73;58.44
44453;BME280;30155;52.164;21.236;2023-04-04T19:58:25;101206.19;;;1.73;58.39
44453;BME280;30155;52.164;21.236;2023-04-04T20:03:27;101204.97;;;1.70;58.32
44453;BME280;30155;52.164;21.236;2023-04-04T20:08:24;101200.95;;;1.69;58.81
44453;BME280;30155;52.164;21.236;2023-04-04T20:13:23;101197.10;;;1.65;58.76
44453;BME280;30155;52.164;21.236;2023-04-04T20:18:21;101202.32;;;1.60;59.19
44453;BME280;30155;52.164;21.236;2023-04-04T20:23:15;101197.34;;;1.57;59.22
44453;BME280;30155;52.164;21.236;2023-04-04T20:28:22;101195.99;;;1.55;59.77
44453;BME280;30155;52.164;21.236;2023-04-04T20:33:36;101193.42;;;1.49;59.55
44453;BME280;30155;52.164;21.236;2023-04-04T20:38:29;101197.11;;;1.45;59.88
44453;BME280;30155;52.164;21.236;2023-04-04T20:43:23;101199.44;;;1.41;60.20
44453;BME280;30155;52.164;21.236;2023-04-04T20:53:26;101192.20;;;1.29;60.62
44453;BME280;30155;52.164;21.236;2023-04-04T20:58:27;101191.25;;;1.19;60.57
44453;BME280;30155;52.164;21.236;2023-04-04T21:03:32;101197.36;;;1.07;60.84
44453;BME280;30155;52.164;21.236;2023-04-04T21:08:38;101194.18;;;0.95;61.16
44453;BME280;30155;52.164;21.236;2023-04-04T21:13:35;101191.88;;;0.80;61.21
44453;BME280;30155;52.164;21.236;2023-04-04T21:18:30;101191.50;;;0.61;61.27
44453;BME280;30155;52.164;21.236;2023-04-04T21:28:41;101195.73;;;0.24;61.75
44453;BME280;30155;52.164;21.236;2023-04-04T21:33:34;101199.48;;;0.03;62.11
44453;BME280;30155;52.164;21.236;2023-04-04T21:38:30;101199.84;;;-0.14;62.13
44453;BME280;30155;52.164;21.236;2023-04-04T21:43:23;101199.13;;;-0.30;62.56
44453;BME280;30155;52.164;21.236;2023-04-04T21:48:16;101198.73;;;-0.46;62.57
44453;BME280;30155;52.164;21.236;2023-04-04T21:53:09;101191.66;;;-0.57;62.96
44453;BME280;30155;52.164;21.236;2023-04-04T21:58:02;101191.80;;;-0.65;63.25
44453;BME280;30155;52.164;21.236;2023-04-04T22:02:58;101186.34;;;-0.72;63.35
44453;BME280;30155;52.164;21.236;2023-04-04T22:07:52;101185.88;;;-0.80;63.51
44453;BME280;30155;52.164;21.236;2023-04-04T22:12:45;101187.42;;;-0.91;63.73
44453;BME280;30155;52.164;21.236;2023-04-04T22:17:40;101183.12;;;-1.01;63.87
44453;BME280;30155;52.164;21.236;2023-04-04T22:22:33;101181.24;;;-1.11;64.16
44453;BME280;30155;52.164;21.236;2023-04-04T22:27:30;101184.94;;;-1.14;64.31
44453;BME280;30155;52.164;21.236;2023-04-04T22:32:24;101178.84;;;-1.19;64.49
44453;BME280;30155;52.164;21.236;2023-04-04T22:37:18;101180.70;;;-1.31;64.38
44453;BME280;30155;52.164;21.236;2023-04-04T22:42:12;101186.52;;;-1.42;64.52
44453;BME280;30155;52.164;21.236;2023-04-04T22:47:04;101187.23;;;-1.46;64.70
44453;BME280;30155;52.164;21.236;2023-04-04T22:51:58;101182.77;;;-1.52;64.77
44453;BME280;30155;52.164;21.236;2023-04-04T22:56:51;101183.73;;;-1.57;65.25
44453;BME280;30155;52.164;21.236;2023-04-04T23:01:44;101182.40;;;-1.61;65.37
44453;BME280;30155;52.164;21.236;2023-04-04T23:06:36;101178.63;;;-1.66;65.22
44453;BME280;30155;52.164;21.236;2023-04-04T23:11:29;101173.89;;;-1.75;65.22
44453;BME280;30155;52.164;21.236;2023-04-04T23:16:23;101178.64;;;-1.82;65.35
44453;BME280;30155;52.164;21.236;2023-04-04T23:21:17;101177.34;;;-1.91;65.43
44453;BME280;30155;52.164;21.236;2023-04-04T23:26:09;101173.48;;;-1.97;65.29
44453;BME280;30155;52.164;21.236;2023-04-04T23:31:04;101167.41;;;-2.01;65.66
44453;BME280;30155;52.164;21.236;2023-04-04T23:35:56;101158.48;;;-2.02;66.01
44453;BME280;30155;52.164;21.236;2023-04-04T23:40:49;101163.65;;;-2.06;66.33
44453;BME280;30155;52.164;21.236;2023-04-04T23:45:44;101154.53;;;-2.10;66.05
44453;BME280;30155;52.164;21.236;2023-04-04T23:50:36;101154.20;;;-2.19;65.77
44453;BME280;30155;52.164;21.236;2023-04-04T23:55:32;101153.52;;;-2.28;65.99
